sensor_id;sensor_type;location;lat;lon;timestamp;temperature;humidity
9949;DHT22;5013;51.840;8.276;2024-02-21T00:02:05;8.80;1.00
9949;DHT22;5013;51.840;8.276;2024-02-21T00:04:30;8.70;1.00
9949;DHT22;5013;51.840;8.276;2024-02-21T00:06:56;8.70;99.90
9949;DHT22;5013;51.840;8.276;2024-02-21T00:09:21;8.70;99.90
9949;DHT22;5013;51.840;8.276;2024-02-21T00:11:47;8.70;99.90
9949;DHT22;5013;51.840;8.276;2024-02-21T00:14:13;8.70;1.00
9949;DHT22;5013;51.840;8.276;2024-02-21T00:16:38;8.70;99.90
9949;DHT22;5013;51.840;8.276;2024-02-21T00:19:04;8.70;99.90
9949;DHT22;5013;51.840;8.276;2024-02-21T00:21:30;8.70;99.90
9949;DHT22;5013;51.840;8.276;2024-02-21T00:23:55;8.70;99.90
9949;DHT22;5013;51.840;8.276;2024-02-21T00:26:21;8.70;99.90
9949;DHT22;5013;51.840;8.276;2024-02-21T00:28:46;8.70;99.90
9949;DHT22;5013;51.840;8.276;2024-02-21T00:31:12;8.70;55.30
9949;DHT22;5013;51.840;8.276;2024-02-21T00:33:37;8.70;99.90
9949;DHT22;5013;51.840;8.276;2024-02-21T00:36:03;8.80;99.90
9949;DHT22;5013;51.840;8.276;2024-02-21T00:38:29;8.70;1.00
9949;DHT22;5013;51.840;8.276;2024-02-21T00:40:54;8.70;1.00
9949;DHT22;5013;51.840;8.276;2024-02-21T00:43:20;8.70;1.00
9949;DHT22;5013;51.840;8.276;2024-02-21T00:45:49;8.70;36.30
9949;DHT22;5013;51.840;8.276;2024-02-21T00:48:14;8.70;1.00
9949;DHT22;5013;51.840;8.276;2024-02-21T00:50:40;8.70;1.00
9949;DHT22;5013;51.840;8.276;2024-02-21T00:53:05;8.70;1.00
9949;DHT22;5013;51.840;8.276;2024-02-21T00:55:31;8.70;1.00
9949;DHT22;5013;51.840;8.276;2024-02-21T00:57:56;8.70;1.00
9949;DHT22;5013;51.840;8.276;2024-02-21T01:00:22;8.70;99.90
9949;DHT22;5013;51.840;8.276;2024-02-21T01:02:47;8.70;99.90
9949;DHT22;5013;51.840;8.276;2024-02-21T01:05:13;8.70;1.00
9949;DHT22;5013;51.840;8.276;2024-02-21T01:07:39;8.70;99.90
9949;DHT22;5013;51.840;8.276;2024-02-21T01:10:05;8.70;99.90
9949;DHT22;5013;51.840;8.276;2024-02-21T01:12:31;8.60;99.90
9949;DHT22;5013;51.840;8.276;2024-02-21T01:14:56;8.60;1.00
9949;DHT22;5013;51.840;8.276;2024-02-21T01:17:22;8.70;1.00
9949;DHT22;5013;51.840;8.276;2024-02-21T01:19:47;8.70;1.00
9949;DHT22;5013;51.840;8.276;2024-02-21T01:22:13;8.70;1.00
9949;DHT22;5013;51.840;8.276;2024-02-21T01:24:40;8.60;1.00
9949;DHT22;5013;51.840;8.276;2024-02-21T01:27:05;8.70;1.00
9949;DHT22;5013;51.840;8.276;2024-02-21T01:29:31;8.70;1.00
9949;DHT22;5013;51.840;8.276;2024-02-21T01:31:56;8.70;1.00
9949;DHT22;5013;51.840;8.276;2024-02-21T01:34:22;8.70;99.90
9949;DHT22;5013;51.840;8.276;2024-02-21T01:36:48;8.70;1.00
9949;DHT22;5013;51.840;8.276;2024-02-21T01:39:13;8.70;1.00
9949;DHT22;5013;51.840;8.276;2024-02-21T01:41:39;8.70;1.00
9949;DHT22;5013;51.840;8.276;2024-02-21T01:44:04;8.80;1.00
9949;DHT22;5013;51.840;8.276;2024-02-21T01:46:30;8.70;99.90
9949;DHT22;5013;51.840;8.276;2024-02-21T01:48:57;8.70;99.90
9949;DHT22;5013;51.840;8.276;2024-02-21T01:51:23;8.80;99.90
9949;DHT22;5013;51.840;8.276;2024-02-21T01:53:50;8.70;99.90
9949;DHT22;5013;51.840;8.276;2024-02-21T01:56:17;8.80;99.90
9949;DHT22;5013;51.840;8.276;2024-02-21T01:58:42;8.80;99.90
9949;DHT22;5013;51.840;8.276;2024-02-21T02:01:10;8.70;99.90
9949;DHT22;5013;51.840;8.276;2024-02-21T02:03:35;8.70;99.90
9949;DHT22;5013;51.840;8.276;2024-02-21T02:06:02;8.80;99.90
9949;DHT22;5013;51.840;8.276;2024-02-21T02:08:28;8.80;99.90
9949;DHT22;5013;51.840;8.276;2024-02-21T02:10:53;8.80;99.90
9949;DHT22;5013;51.840;8.276;2024-02-21T02:13:19;8.80;99.90
9949;DHT22;5013;51.840;8.276;2024-02-21T02:15:46;8.80;99.90
9949;DHT22;5013;51.840;8.276;2024-02-21T02:18:13;8.70;38.30
9949;DHT22;5013;51.840;8.276;2024-02-21T02:20:39;8.80;99.90
9949;DHT22;5013;51.840;8.276;2024-02-21T02:25:31;8.80;99.90
9949;DHT22;5013;51.840;8.276;2024-02-21T02:27:56;8.80;99.90
9949;DHT22;5013;51.840;8.276;2024-02-21T02:30:22;8.80;1.00
9949;DHT22;5013;51.840;8.276;2024-02-21T02:32:47;8.80;1.00
9949;DHT22;5013;51.840;8.276;2024-02-21T02:35:13;8.80;1.00
9949;DHT22;5013;51.840;8.276;2024-02-21T02:37:39;8.80;44.60
9949;DHT22;5013;51.840;8.276;2024-02-21T02:40:06;8.80;99.90
9949;DHT22;5013;51.840;8.276;2024-02-21T02:42:32;8.80;1.00
9949;DHT22;5013;51.840;8.276;2024-02-21T02:44:57;8.80;1.00
9949;DHT22;5013;51.840;8.276;2024-02-21T02:47:23;8.80;1.00
9949;DHT22;5013;51.840;8.276;2024-02-21T02:49:49;8.80;1.00
9949;DHT22;5013;51.840;8.276;2024-02-21T02:52:16;8.80;1.00
9949;DHT22;5013;51.840;8.276;2024-02-21T02:54:43;8.80;1.00
9949;DHT22;5013;51.840;8.276;2024-02-21T02:57:09;8.80;1.00
9949;DHT22;5013;51.840;8.276;2024-02-21T02:59:35;8.90;1.00
9949;DHT22;5013;51.840;8.276;2024-02-21T03:02:00;8.90;99.90
9949;DHT22;5013;51.840;8.276;2024-02-21T03:04:26;8.80;99.90
9949;DHT22;5013;51.840;8.276;2024-02-21T03:06:51;8.90;99.90
9949;DHT22;5013;51.840;8.276;2024-02-21T03:09:17;8.80;99.90
9949;DHT22;5013;51.840;8.276;2024-02-21T03:11:43;8.90;99.90
9949;DHT22;5013;51.840;8.276;2024-02-21T03:14:10;8.90;99.90
9949;DHT22;5013;51.840;8.276;2024-02-21T03:16:35;8.80;99.90
9949;DHT22;5013;51.840;8.276;2024-02-21T03:19:01;8.80;99.90
9949;DHT22;5013;51.840;8.276;2024-02-21T03:21:26;8.80;99.90
9949;DHT22;5013;51.840;8.276;2024-02-21T03:23:52;8.70;99.90
9949;DHT22;5013;51.840;8.276;2024-02-21T03:26:17;8.70;99.90
9949;DHT22;5013;51.840;8.276;2024-02-21T03:28:44;8.70;1.00
9949;DHT22;5013;51.840;8.276;2024-02-21T03:31:13;8.70;1.00
9949;DHT22;5013;51.840;8.276;2024-02-21T03:33:41;8.60;1.00
9949;DHT22;5013;51.840;8.276;2024-02-21T03:36:13;8.70;1.00
9949;DHT22;5013;51.840;8.276;2024-02-21T03:38:39;8.70;1.00
9949;DHT22;5013;51.840;8.276;2024-02-21T03:41:05;8.60;1.00
9949;DHT22;5013;51.840;8.276;2024-02-21T03:43:30;8.80;1.00
9949;DHT22;5013;51.840;8.276;2024-02-21T03:45:56;8.70;1.00
9949;DHT22;5013;51.840;8.276;2024-02-21T03:48:22;8.70;99.90
9949;DHT22;5013;51.840;8.276;2024-02-21T03:50:47;8.70;1.00
9949;DHT22;5013;51.840;8.276;2024-02-21T03:53:13;8.70;99.90
9949;DHT22;5013;51.840;8.276;2024-02-21T03:55:38;8.70;99.90
9949;DHT22;5013;51.840;8.276;2024-02-21T03:58:04;8.70;99.90
9949;DHT22;5013;51.840;8.276;2024-02-21T04:00:29;8.70;1.00
9949;DHT22;5013;51.840;8.276;2024-02-21T04:02:55;8.70;99.90
9949;DHT22;5013;51.840;8.276;2024-02-21T04:05:21;8.70;99.90
9949;DHT22;5013;51.840;8.276;2024-02-21T04:07:46;8.70;99.90
9949;DHT22;5013;51.840;8.276;2024-02-21T04:10:12;8.70;99.90
9949;DHT22;5013;51.840;8.276;2024-02-21T04:12:38;8.70;99.90
9949;DHT22;5013;51.840;8.276;2024-02-21T04:15:04;8.70;20.20
9949;DHT22;5013;51.840;8.276;2024-02-21T04:17:30;8.70;99.90
9949;DHT22;5013;51.840;8.276;2024-02-21T04:20:03;8.70;1.00
9949;DHT22;5013;51.840;8.276;2024-02-21T04:22:34;8.80;1.00
9949;DHT22;5013;51.840;8.276;2024-02-21T04:25:00;8.70;1.00
9949;DHT22;5013;51.840;8.276;2024-02-21T04:27:26;8.80;1.00
9949;DHT22;5013;51.840;8.276;2024-02-21T04:29:52;8.80;1.00
9949;DHT22;5013;51.840;8.276;2024-02-21T04:32:18;8.80;1.00
9949;DHT22;5013;51.840;8.276;2024-02-21T04:34:43;8.70;1.00
9949;DHT22;5013;51.840;8.276;2024-02-21T04:37:09;8.80;1.00
9949;DHT22;5013;51.840;8.276;2024-02-21T04:39:34;8.80;1.00
9949;DHT22;5013;51.840;8.276;2024-02-21T04:42:00;8.80;1.00
9949;DHT22;5013;51.840;8.276;2024-02-21T04:44:26;8.80;1.00
9949;DHT22;5013;51.840;8.276;2024-02-21T04:46:51;8.80;99.90
9949;DHT22;5013;51.840;8.276;2024-02-21T04:49:17;8.80;1.00
9949;DHT22;5013;51.840;8.276;2024-02-21T04:51:42;8.80;1.00
9949;DHT22;5013;51.840;8.276;2024-02-21T04:54:08;8.80;1.00
9949;DHT22;5013;51.840;8.276;2024-02-21T04:56:34;8.80;1.00
9949;DHT22;5013;51.840;8.276;2024-02-21T04:59:00;8.80;1.00
9949;DHT22;5013;51.840;8.276;2024-02-21T05:01:25;8.80;1.00
9949;DHT22;5013;51.840;8.276;2024-02-21T05:03:51;8.80;1.00
9949;DHT22;5013;51.840;8.276;2024-02-21T05:06:16;8.80;1.00
9949;DHT22;5013;51.840;8.276;2024-02-21T05:08:42;8.80;1.00
9949;DHT22;5013;51.840;8.276;2024-02-21T05:11:08;8.80;1.00
9949;DHT22;5013;51.840;8.276;2024-02-21T05:13:33;8.80;1.00
9949;DHT22;5013;51.840;8.276;2024-02-21T05:15:59;8.80;1.00
9949;DHT22;5013;51.840;8.276;2024-02-21T05:18:27;8.80;1.00
9949;DHT22;5013;51.840;8.276;2024-02-21T05:20:53;8.80;1.00
9949;DHT22;5013;51.840;8.276;2024-02-21T05:23:18;8.80;92.60
9949;DHT22;5013;51.840;8.276;2024-02-21T05:25:44;8.80;1.00
9949;DHT22;5013;51.840;8.276;2024-02-21T05:28:10;8.70;99.90
9949;DHT22;5013;51.840;8.276;2024-02-21T05:30:35;8.80;99.90
9949;DHT22;5013;51.840;8.276;2024-02-21T05:33:07;8.80;99.90
9949;DHT22;5013;51.840;8.276;2024-02-21T05:35:33;8.70;99.90
9949;DHT22;5013;51.840;8.276;2024-02-21T05:37:59;8.80;99.90
9949;DHT22;5013;51.840;8.276;2024-02-21T05:40:25;8.70;1.00
9949;DHT22;5013;51.840;8.276;2024-02-21T05:42:51;8.70;1.00
9949;DHT22;5013;51.840;8.276;2024-02-21T05:45:17;8.70;1.00
9949;DHT22;5013;51.840;8.276;2024-02-21T05:47:43;8.80;99.90
9949;DHT22;5013;51.840;8.276;2024-02-21T05:50:10;8.70;1.00
9949;DHT22;5013;51.840;8.276;2024-02-21T05:52:35;8.70;99.90
9949;DHT22;5013;51.840;8.276;2024-02-21T05:55:01;8.70;1.00
9949;DHT22;5013;51.840;8.276;2024-02-21T05:57:26;8.70;1.00
9949;DHT22;5013;51.840;8.276;2024-02-21T05:59:52;8.70;1.00
9949;DHT22;5013;51.840;8.276;2024-02-21T06:02:17;8.70;1.00
9949;DHT22;5013;51.840;8.276;2024-02-21T06:04:43;8.70;99.90
9949;DHT22;5013;51.840;8.276;2024-02-21T06:07:09;8.70;99.90
9949;DHT22;5013;51.840;8.276;2024-02-21T06:09:35;8.80;99.90
9949;DHT22;5013;51.840;8.276;2024-02-21T06:12:01;8.80;1.00
9949;DHT22;5013;51.840;8.276;2024-02-21T06:14:26;8.80;1.00
9949;DHT22;5013;51.840;8.276;2024-02-21T06:16:52;8.80;1.00
9949;DHT22;5013;51.840;8.276;2024-02-21T06:19:17;8.80;1.00
9949;DHT22;5013;51.840;8.276;2024-02-21T06:21:43;8.80;99.90
9949;DHT22;5013;51.840;8.276;2024-02-21T06:24:08;8.80;99.90
9949;DHT22;5013;51.840;8.276;2024-02-21T06:26:34;8.80;99.90
9949;DHT22;5013;51.840;8.276;2024-02-21T06:28:59;8.80;99.90
9949;DHT22;5013;51.840;8.276;2024-02-21T06:31:25;8.80;99.90
9949;DHT22;5013;51.840;8.276;2024-02-21T06:33:51;8.80;32.90
9949;DHT22;5013;51.840;8.276;2024-02-21T06:36:16;8.80;99.90
9949;DHT22;5013;51.840;8.276;2024-02-21T06:38:42;8.80;99.90
9949;DHT22;5013;51.840;8.276;2024-02-21T06:41:18;8.80;1.00
9949;DHT22;5013;51.840;8.276;2024-02-21T06:43:46;8.80;1.00
9949;DHT22;5013;51.840;8.276;2024-02-21T06:46:21;8.80;1.00
9949;DHT22;5013;51.840;8.276;2024-02-21T06:48:47;8.80;1.00
9949;DHT22;5013;51.840;8.276;2024-02-21T06:51:13;8.80;1.00
9949;DHT22;5013;51.840;8.276;2024-02-21T06:53:38;8.80;1.00
9949;DHT22;5013;51.840;8.276;2024-02-21T06:56:04;8.80;1.00
9949;DHT22;5013;51.840;8.276;2024-02-21T06:58:30;8.90;1.00
9949;DHT22;5013;51.840;8.276;2024-02-21T07:00:55;8.90;99.90
9949;DHT22;5013;51.840;8.276;2024-02-21T07:03:21;8.90;1.00
9949;DHT22;5013;51.840;8.276;2024-02-21T07:05:46;8.90;1.00
9949;DHT22;5013;51.840;8.276;2024-02-21T07:08:12;8.90;99.90
9949;DHT22;5013;51.840;8.276;2024-02-21T07:10:37;8.90;1.00
9949;DHT22;5013;51.840;8.276;2024-02-21T07:13:03;9.00;1.00
9949;DHT22;5013;51.840;8.276;2024-02-21T07:15:28;9.00;99.90
9949;DHT22;5013;51.840;8.276;2024-02-21T07:17:56;9.00;99.90
9949;DHT22;5013;51.840;8.276;2024-02-21T07:20:21;9.00;99.90
9949;DHT22;5013;51.840;8.276;2024-02-21T07:22:47;9.10;36.80
9949;DHT22;5013;51.840;8.276;2024-02-21T07:25:13;9.10;99.90
9949;DHT22;5013;51.840;8.276;2024-02-21T07:27:39;9.10;1.00
9949;DHT22;5013;51.840;8.276;2024-02-21T07:30:05;9.10;1.00
9949;DHT22;5013;51.840;8.276;2024-02-21T07:32:31;9.10;14.80
9949;DHT22;5013;51.840;8.276;2024-02-21T07:34:56;9.10;1.00
9949;DHT22;5013;51.840;8.276;2024-02-21T07:37:22;9.10;1.00
9949;DHT22;5013;51.840;8.276;2024-02-21T07:39:48;9.20;1.00
9949;DHT22;5013;51.840;8.276;2024-02-21T07:42:13;9.30;1.00
9949;DHT22;5013;51.840;8.276;2024-02-21T07:44:39;9.30;99.90
9949;DHT22;5013;51.840;8.276;2024-02-21T07:47:04;9.40;1.00
9949;DHT22;5013;51.840;8.276;2024-02-21T07:49:32;9.40;1.00
9949;DHT22;5013;51.840;8.276;2024-02-21T07:52:00;9.40;99.90
9949;DHT22;5013;51.840;8.276;2024-02-21T07:54:25;9.40;99.90
9949;DHT22;5013;51.840;8.276;2024-02-21T07:56:51;9.40;99.90
9949;DHT22;5013;51.840;8.276;2024-02-21T07:59:16;9.40;99.90
9949;DHT22;5013;51.840;8.276;2024-02-21T08:01:42;9.50;1.00
9949;DHT22;5013;51.840;8.276;2024-02-21T08:04:08;9.50;99.90
9949;DHT22;5013;51.840;8.276;2024-02-21T08:06:33;9.60;44.30
9949;DHT22;5013;51.840;8.276;2024-02-21T08:08:59;9.60;1.00
9949;DHT22;5013;51.840;8.276;2024-02-21T08:11:25;9.60;1.00
9949;DHT22;5013;51.840;8.276;2024-02-21T08:13:51;9.60;1.00
9949;DHT22;5013;51.840;8.276;2024-02-21T08:16:16;9.60;1.00
9949;DHT22;5013;51.840;8.276;2024-02-21T08:18:44;9.80;1.00
9949;DHT22;5013;51.840;8.276;2024-02-21T08:21:09;9.80;1.00
9949;DHT22;5013;51.840;8.276;2024-02-21T08:23:35;9.90;1.00
9949;DHT22;5013;51.840;8.276;2024-02-21T08:26:03;9.90;1.00
9949;DHT22;5013;51.840;8.276;2024-02-21T08:28:29;10.00;1.00
9949;DHT22;5013;51.840;8.276;2024-02-21T08:30:54;10.00;1.00
9949;DHT22;5013;51.840;8.276;2024-02-21T08:33:20;10.10;1.00
9949;DHT22;5013;51.840;8.276;2024-02-21T08:35:50;10.30;99.90
9949;DHT22;5013;51.840;8.276;2024-02-21T08:38:15;10.40;99.90
9949;DHT22;5013;51.840;8.276;2024-02-21T08:40:41;10.60;99.90
9949;DHT22;5013;51.840;8.276;2024-02-21T08:43:06;10.50;99.90
9949;DHT22;5013;51.840;8.276;2024-02-21T08:45:32;10.40;99.90
9949;DHT22;5013;51.840;8.276;2024-02-21T08:47:57;10.40;99.90
9949;DHT22;5013;51.840;8.276;2024-02-21T08:50:23;10.50;99.90
9949;DHT22;5013;51.840;8.276;2024-02-21T08:52:48;10.40;99.90
9949;DHT22;5013;51.840;8.276;2024-02-21T08:55:14;10.40;99.90
9949;DHT22;5013;51.840;8.276;2024-02-21T08:57:40;10.50;99.90
9949;DHT22;5013;51.840;8.276;2024-02-21T09:00:06;10.60;99.90
9949;DHT22;5013;51.840;8.276;2024-02-21T09:02:41;10.50;1.00
9949;DHT22;5013;51.840;8.276;2024-02-21T09:05:13;10.40;99.90
9949;DHT22;5013;51.840;8.276;2024-02-21T09:07:39;10.40;99.90
9949;DHT22;5013;51.840;8.276;2024-02-21T09:10:05;10.60;99.90
9949;DHT22;5013;51.840;8.276;2024-02-21T09:12:30;10.60;99.90
9949;DHT22;5013;51.840;8.276;2024-02-21T09:14:56;10.70;99.90
9949;DHT22;5013;51.840;8.276;2024-02-21T09:17:22;10.70;99.90
9949;DHT22;5013;51.840;8.276;2024-02-21T09:19:47;10.70;99.90
9949;DHT22;5013;51.840;8.276;2024-02-21T09:22:13;10.80;2.60
9949;DHT22;5013;51.840;8.276;2024-02-21T09:24:39;10.90;1.00
9949;DHT22;5013;51.840;8.276;2024-02-21T09:27:04;11.00;99.90
9949;DHT22;5013;51.840;8.276;2024-02-21T09:29:31;10.90;1.00
9949;DHT22;5013;51.840;8.276;2024-02-21T09:31:59;10.80;1.00
9949;DHT22;5013;51.840;8.276;2024-02-21T09:34:24;10.80;82.00
9949;DHT22;5013;51.840;8.276;2024-02-21T09:36:50;10.80;99.90
9949;DHT22;5013;51.840;8.276;2024-02-21T09:39:15;10.90;1.00
9949;DHT22;5013;51.840;8.276;2024-02-21T09:41:47;10.90;1.00
9949;DHT22;5013;51.840;8.276;2024-02-21T09:44:18;10.80;1.00
9949;DHT22;5013;51.840;8.276;2024-02-21T09:47:04;10.90;99.90
9949;DHT22;5013;51.840;8.276;2024-02-21T09:49:35;11.10;1.00
9949;DHT22;5013;51.840;8.276;2024-02-21T09:52:07;11.10;1.00
9949;DHT22;5013;51.840;8.276;2024-02-21T09:54:33;11.20;1.00
9949;DHT22;5013;51.840;8.276;2024-02-21T09:57:03;11.30;1.00
9949;DHT22;5013;51.840;8.276;2024-02-21T09:59:31;11.30;1.00
9949;DHT22;5013;51.840;8.276;2024-02-21T10:01:56;11.20;1.00
9949;DHT22;5013;51.840;8.276;2024-02-21T10:04:23;11.20;1.00
9949;DHT22;5013;51.840;8.276;2024-02-21T10:06:49;11.20;1.00
9949;DHT22;5013;51.840;8.276;2024-02-21T10:09:27;11.20;1.00
9949;DHT22;5013;51.840;8.276;2024-02-21T10:11:54;11.30;1.00
9949;DHT22;5013;51.840;8.276;2024-02-21T10:14:20;11.40;1.00
9949;DHT22;5013;51.840;8.276;2024-02-21T10:16:48;11.30;1.00
9949;DHT22;5013;51.840;8.276;2024-02-21T10:19:21;11.30;25.50
9949;DHT22;5013;51.840;8.276;2024-02-21T10:22:05;11.10;1.00
9949;DHT22;5013;51.840;8.276;2024-02-21T10:24:33;11.10;1.00
9949;DHT22;5013;51.840;8.276;2024-02-21T10:27:02;11.00;1.00
9949;DHT22;5013;51.840;8.276;2024-02-21T10:29:29;11.00;1.00
9949;DHT22;5013;51.840;8.276;2024-02-21T10:32:08;10.80;11.10
9949;DHT22;5013;51.840;8.276;2024-02-21T10:34:35;10.90;99.90
9949;DHT22;5013;51.840;8.276;2024-02-21T10:37:05;10.80;99.90
9949;DHT22;5013;51.840;8.276;2024-02-21T10:39:32;10.90;99.90
9949;DHT22;5013;51.840;8.276;2024-02-21T10:42:00;10.80;99.90
9949;DHT22;5013;51.840;8.276;2024-02-21T10:44:30;10.80;99.90
9949;DHT22;5013;51.840;8.276;2024-02-21T10:46:57;10.90;99.90
9949;DHT22;5013;51.840;8.276;2024-02-21T10:49:24;10.90;99.90
9949;DHT22;5013;51.840;8.276;2024-02-21T10:52:06;10.90;30.30
9949;DHT22;5013;51.840;8.276;2024-02-21T10:54:57;10.80;99.90
9949;DHT22;5013;51.840;8.276;2024-02-21T10:57:25;11.00;99.90
9949;DHT22;5013;51.840;8.276;2024-02-21T10:59:53;11.00;99.90
9949;DHT22;5013;51.840;8.276;2024-02-21T11:02:20;11.10;99.90
9949;DHT22;5013;51.840;8.276;2024-02-21T11:04:46;11.20;1.00
9949;DHT22;5013;51.840;8.276;2024-02-21T11:07:13;11.20;59.10
9949;DHT22;5013;51.840;8.276;2024-02-21T11:09:51;11.20;87.30
9949;DHT22;5013;51.840;8.276;2024-02-21T11:12:21;11.30;24.90
9949;DHT22;5013;51.840;8.276;2024-02-21T11:14:47;11.20;1.00
9949;DHT22;5013;51.840;8.276;2024-02-21T11:17:20;11.20;39.60
9949;DHT22;5013;51.840;8.276;2024-02-21T11:19:51;11.20;99.90
9949;DHT22;5013;51.840;8.276;2024-02-21T11:22:18;11.20;99.90
9949;DHT22;5013;51.840;8.276;2024-02-21T11:24:45;11.20;99.90
9949;DHT22;5013;51.840;8.276;2024-02-21T11:27:21;11.20;99.90
9949;DHT22;5013;51.840;8.276;2024-02-21T11:29:56;11.00;1.00
9949;DHT22;5013;51.840;8.276;2024-02-21T11:32:22;10.90;99.90
9949;DHT22;5013;51.840;8.276;2024-02-21T11:34:54;10.70;99.90
9949;DHT22;5013;51.840;8.276;2024-02-21T11:37:20;10.80;99.90
9949;DHT22;5013;51.840;8.276;2024-02-21T11:39:46;10.80;99.90
9949;DHT22;5013;51.840;8.276;2024-02-21T11:42:11;10.80;99.90
9949;DHT22;5013;51.840;8.276;2024-02-21T11:44:38;10.90;99.90
9949;DHT22;5013;51.840;8.276;2024-02-21T11:47:05;10.90;99.90
9949;DHT22;5013;51.840;8.276;2024-02-21T11:49:39;10.90;99.90
9949;DHT22;5013;51.840;8.276;2024-02-21T11:52:07;10.70;99.90
9949;DHT22;5013;51.840;8.276;2024-02-21T11:54:33;10.70;99.90
9949;DHT22;5013;51.840;8.276;2024-02-21T11:57:00;10.70;99.90
9949;DHT22;5013;51.840;8.276;2024-02-21T11:59:26;10.60;1.00
9949;DHT22;5013;51.840;8.276;2024-02-21T12:01:53;10.50;1.00
9949;DHT22;5013;51.840;8.276;2024-02-21T12:04:19;10.50;1.00
9949;DHT22;5013;51.840;8.276;2024-02-21T12:06:46;10.50;1.00
9949;DHT22;5013;51.840;8.276;2024-02-21T12:09:15;10.50;1.00
9949;DHT22;5013;51.840;8.276;2024-02-21T12:11:44;10.40;1.00
9949;DHT22;5013;51.840;8.276;2024-02-21T12:14:10;10.50;1.00
9949;DHT22;5013;51.840;8.276;2024-02-21T12:16:36;10.60;99.90
9949;DHT22;5013;51.840;8.276;2024-02-21T12:19:05;10.60;1.00
9949;DHT22;5013;51.840;8.276;2024-02-21T12:21:31;10.70;1.00
9949;DHT22;5013;51.840;8.276;2024-02-21T12:23:58;10.70;1.00
9949;DHT22;5013;51.840;8.276;2024-02-21T12:26:24;10.60;1.00
9949;DHT22;5013;51.840;8.276;2024-02-21T12:28:51;10.70;99.90
9949;DHT22;5013;51.840;8.276;2024-02-21T12:31:16;11.00;99.90
9949;DHT22;5013;51.840;8.276;2024-02-21T12:33:43;11.10;95.80
9949;DHT22;5013;51.840;8.276;2024-02-21T12:36:08;11.30;99.90
9949;DHT22;5013;51.840;8.276;2024-02-21T12:38:35;11.50;1.00
9949;DHT22;5013;51.840;8.276;2024-02-21T12:41:01;11.60;1.00
9949;DHT22;5013;51.840;8.276;2024-02-21T12:43:26;11.60;1.00
9949;DHT22;5013;51.840;8.276;2024-02-21T12:45:52;11.50;1.00
9949;DHT22;5013;51.840;8.276;2024-02-21T12:48:18;11.40;1.00
9949;DHT22;5013;51.840;8.276;2024-02-21T12:50:50;11.40;1.00
9949;DHT22;5013;51.840;8.276;2024-02-21T12:53:17;11.40;1.00
9949;DHT22;5013;51.840;8.276;2024-02-21T12:55:45;11.30;1.00
9949;DHT22;5013;51.840;8.276;2024-02-21T12:58:11;11.20;1.00
9949;DHT22;5013;51.840;8.276;2024-02-21T13:00:36;11.10;1.00
9949;DHT22;5013;51.840;8.276;2024-02-21T13:03:03;11.20;1.00
9949;DHT22;5013;51.840;8.276;2024-02-21T13:05:29;11.20;1.00
9949;DHT22;5013;51.840;8.276;2024-02-21T13:07:54;11.30;1.00
9949;DHT22;5013;51.840;8.276;2024-02-21T13:10:20;11.10;1.00
9949;DHT22;5013;51.840;8.276;2024-02-21T13:12:45;11.00;1.00
9949;DHT22;5013;51.840;8.276;2024-02-21T13:15:11;11.00;1.00
9949;DHT22;5013;51.840;8.276;2024-02-21T13:17:37;11.00;1.00
9949;DHT22;5013;51.840;8.276;2024-02-21T13:20:03;11.00;1.00
9949;DHT22;5013;51.840;8.276;2024-02-21T13:22:29;11.00;1.00
9949;DHT22;5013;51.840;8.276;2024-02-21T13:24:55;11.00;1.00
9949;DHT22;5013;51.840;8.276;2024-02-21T13:27:20;10.90;26.40
9949;DHT22;5013;51.840;8.276;2024-02-21T13:29:46;10.80;99.90
9949;DHT22;5013;51.840;8.276;2024-02-21T13:32:12;10.90;99.90
9949;DHT22;5013;51.840;8.276;2024-02-21T13:34:37;10.70;1.00
9949;DHT22;5013;51.840;8.276;2024-02-21T13:37:03;10.70;1.00
9949;DHT22;5013;51.840;8.276;2024-02-21T13:39:30;10.70;1.00
9949;DHT22;5013;51.840;8.276;2024-02-21T13:41:55;10.70;1.00
9949;DHT22;5013;51.840;8.276;2024-02-21T13:44:21;10.70;15.90
9949;DHT22;5013;51.840;8.276;2024-02-21T13:46:46;10.70;13.70
9949;DHT22;5013;51.840;8.276;2024-02-21T13:49:12;10.80;99.90
9949;DHT22;5013;51.840;8.276;2024-02-21T13:51:37;10.80;79.10
9949;DHT22;5013;51.840;8.276;2024-02-21T13:54:04;10.80;99.90
9949;DHT22;5013;51.840;8.276;2024-02-21T13:56:30;10.90;1.00
9949;DHT22;5013;51.840;8.276;2024-02-21T13:58:57;10.90;1.00
9949;DHT22;5013;51.840;8.276;2024-02-21T14:01:23;11.00;1.00
9949;DHT22;5013;51.840;8.276;2024-02-21T14:03:48;11.00;1.00
9949;DHT22;5013;51.840;8.276;2024-02-21T14:06:14;11.00;1.00
9949;DHT22;5013;51.840;8.276;2024-02-21T14:08:39;11.00;1.00
9949;DHT22;5013;51.840;8.276;2024-02-21T14:11:06;11.00;1.00
9949;DHT22;5013;51.840;8.276;2024-02-21T14:13:32;11.00;1.00
9949;DHT22;5013;51.840;8.276;2024-02-21T14:15:57;11.10;1.00
9949;DHT22;5013;51.840;8.276;2024-02-21T14:18:23;11.10;1.00
9949;DHT22;5013;51.840;8.276;2024-02-21T14:20:49;11.20;1.00
9949;DHT22;5013;51.840;8.276;2024-02-21T14:23:14;11.20;1.00
9949;DHT22;5013;51.840;8.276;2024-02-21T14:25:40;11.30;1.00
9949;DHT22;5013;51.840;8.276;2024-02-21T14:28:07;11.30;1.00
9949;DHT22;5013;51.840;8.276;2024-02-21T14:30:34;11.40;99.90
9949;DHT22;5013;51.840;8.276;2024-02-21T14:33:00;11.40;1.00
9949;DHT22;5013;51.840;8.276;2024-02-21T14:35:26;11.30;99.90
9949;DHT22;5013;51.840;8.276;2024-02-21T14:37:52;11.20;1.00
9949;DHT22;5013;51.840;8.276;2024-02-21T14:40:21;11.20;1.00
9949;DHT22;5013;51.840;8.276;2024-02-21T14:42:46;11.00;1.00
9949;DHT22;5013;51.840;8.276;2024-02-21T14:45:12;11.00;1.00
9949;DHT22;5013;51.840;8.276;2024-02-21T14:47:39;11.00;1.00
9949;DHT22;5013;51.840;8.276;2024-02-21T14:50:05;11.00;1.00
9949;DHT22;5013;51.840;8.276;2024-02-21T14:52:31;11.00;1.00
9949;DHT22;5013;51.840;8.276;2024-02-21T14:54:58;11.10;1.00
9949;DHT22;5013;51.840;8.276;2024-02-21T14:57:24;11.10;1.00
9949;DHT22;5013;51.840;8.276;2024-02-21T14:59:50;11.10;1.00
9949;DHT22;5013;51.840;8.276;2024-02-21T15:02:22;11.00;1.00
9949;DHT22;5013;51.840;8.276;2024-02-21T15:04:48;11.00;1.00
9949;DHT22;5013;51.840;8.276;2024-02-21T15:07:13;11.00;1.00
9949;DHT22;5013;51.840;8.276;2024-02-21T15:09:39;11.10;1.00
9949;DHT22;5013;51.840;8.276;2024-02-21T15:12:05;11.20;1.00
9949;DHT22;5013;51.840;8.276;2024-02-21T15:14:31;11.00;1.00
9949;DHT22;5013;51.840;8.276;2024-02-21T15:16:57;11.00;1.00
9949;DHT22;5013;51.840;8.276;2024-02-21T15:19:22;11.00;1.00
9949;DHT22;5013;51.840;8.276;2024-02-21T15:21:48;11.00;1.00
9949;DHT22;5013;51.840;8.276;2024-02-21T15:24:13;10.90;1.00
9949;DHT22;5013;51.840;8.276;2024-02-21T15:26:39;10.80;1.00
9949;DHT22;5013;51.840;8.276;2024-02-21T15:29:04;10.90;1.00
9949;DHT22;5013;51.840;8.276;2024-02-21T15:31:30;10.80;1.00
9949;DHT22;5013;51.840;8.276;2024-02-21T15:33:56;10.80;1.00
9949;DHT22;5013;51.840;8.276;2024-02-21T15:36:22;10.80;1.00
9949;DHT22;5013;51.840;8.276;2024-02-21T15:38:47;10.90;1.00
9949;DHT22;5013;51.840;8.276;2024-02-21T15:41:13;10.80;1.00
9949;DHT22;5013;51.840;8.276;2024-02-21T15:43:41;10.80;1.00
9949;DHT22;5013;51.840;8.276;2024-02-21T15:46:11;10.70;1.00
9949;DHT22;5013;51.840;8.276;2024-02-21T15:48:36;10.60;1.00
9949;DHT22;5013;51.840;8.276;2024-02-21T15:51:02;10.60;1.00
9949;DHT22;5013;51.840;8.276;2024-02-21T15:53:29;10.60;29.50
9949;DHT22;5013;51.840;8.276;2024-02-21T15:55:55;10.50;1.00
9949;DHT22;5013;51.840;8.276;2024-02-21T15:58:20;10.50;1.00
9949;DHT22;5013;51.840;8.276;2024-02-21T16:00:50;10.50;1.00
9949;DHT22;5013;51.840;8.276;2024-02-21T16:03:16;10.50;1.00
9949;DHT22;5013;51.840;8.276;2024-02-21T16:05:42;10.40;1.00
9949;DHT22;5013;51.840;8.276;2024-02-21T16:08:07;10.40;1.00
9949;DHT22;5013;51.840;8.276;2024-02-21T16:10:33;10.40;99.90
9949;DHT22;5013;51.840;8.276;2024-02-21T16:12:59;10.40;99.90
9949;DHT22;5013;51.840;8.276;2024-02-21T16:15:25;10.30;99.90
9949;DHT22;5013;51.840;8.276;2024-02-21T16:17:50;10.30;99.90